»·PEaware :: PIN3834 KDEN-EDDF

PIN3834 :: KDEN-EDDF

FLIGHT INFORMATION

Flight Status: Arrived
Operator: Unknown
More flights by this operator :: More flights under this callsign
Pilot: Stacy K. (11621)
Aircraft: Unknown
(B789)
More flights by this aircraft type
Origin: KDEN Denver Intl
United States
Destination: EDDF Frankfurt/Main
Germany
More flights between these airports :: More routes between these airports
Route: EEONS6 WYNDM HCT OBH KP75G KG81K DLL TVC YMW YQB MIILS N269A JOOPY/M085F370 NATS LIMRI/N0499F370 NATS XETBO EVRIN UL607 SPI UT180 PESOV T180 UNOKO UNOKO2H
File this flight plan on PilotEdge
Remarks: RMK / SIMBRIEF
Altitude:
(Current/Filed)
35,000ft
Speed:
(Current/Filed)
491kts
Departed: 02-Jun-19 12:21 PM
Arrived: 02-Jun-19 02:55 PM
Distance/Time
Traveled:
4364nm/2:34
Distance/Time
To Go:
Arrived

Flight Plot

Page will automatically refresh every two minutes.

Flight plan parsing failed; only flown route is shown


Map Options




Map Legend


Flown Route
Filed Route
Departure Airport
Arrival Airport
Navaid (VOR, NDB)
Fix

Horizontal Profiles

Position Reports

Time Latitude Longitude Heading Altitude Ground
Speed
02-Jun-19 12:19 51.774497 -23.232456 80 37039ft 532kts
02-Jun-19 12:20 51.794116 -22.996172 80 37039ft 532kts
02-Jun-19 12:21 51.813037 -22.758603 81 37038ft 532kts
02-Jun-19 12:22 51.831303 -22.521983 81 37020ft 531kts
02-Jun-19 12:23 51.849065 -22.285321 81 37013ft 529kts
02-Jun-19 12:24 51.866479 -22.049939 81 37003ft 527kts
02-Jun-19 12:25 51.883700 -21.814964 81 37002ft 526kts
02-Jun-19 12:26 51.900696 -21.579124 82 37007ft 526kts
02-Jun-19 12:27 51.917149 -21.344233 82 37001ft 527kts
02-Jun-19 12:28 51.933346 -21.107846 82 37001ft 527kts
02-Jun-19 12:29 51.948547 -20.871098 82 36952ft 528kts
02-Jun-19 12:30 51.962936 -20.634798 83 36921ft 526kts
02-Jun-19 12:31 51.976604 -20.399049 83 36918ft 525kts
02-Jun-19 12:32 51.990114 -20.164203 83 36913ft 523kts
02-Jun-19 12:33 51.993960 -20.097054 83 36911ft 523kts
02-Jun-19 12:39 52.022292 -18.519577 89 36897ft 519kts
02-Jun-19 12:40 52.023830 -18.285088 89 36894ft 519kts
02-Jun-19 12:41 52.024986 -18.050213 89 36892ft 520kts
02-Jun-19 12:42 52.025598 -17.815644 89 36891ft 520kts
02-Jun-19 12:43 52.025789 -17.580999 89 36888ft 520kts
02-Jun-19 12:44 52.025737 -17.346676 89 36886ft 519kts
02-Jun-19 12:45 52.025625 -17.112041 90 36884ft 518kts
02-Jun-19 12:46 52.024989 -16.878590 90 36881ft 518kts
02-Jun-19 12:47 52.023242 -16.643920 91 36879ft 518kts
02-Jun-19 12:48 52.020896 -16.410006 91 36876ft 519kts
02-Jun-19 12:49 52.018352 -16.175940 91 36874ft 520kts
02-Jun-19 12:50 52.015605 -15.941314 91 36872ft 520kts
02-Jun-19 12:51 52.012617 -15.706574 91 36869ft 520kts
02-Jun-19 12:52 52.009366 -15.471524 91 36867ft 519kts
02-Jun-19 12:53 52.004972 -15.237895 92 36864ft 519kts
02-Jun-19 12:54 52.000055 -15.003421 91 36865ft 518kts
02-Jun-19 12:55 51.999921 -14.769288 90 36859ft 520kts
02-Jun-19 12:56 52.000766 -14.534109 90 36856ft 520kts
02-Jun-19 12:57 52.000368 -14.299759 91 36813ft 520kts
02-Jun-19 12:58 51.999687 -14.064924 91 36799ft 520kts
02-Jun-19 12:59 52.000111 -13.830427 90 36804ft 520kts
02-Jun-19 13:00 52.000221 -13.595862 91 36798ft 521kts
02-Jun-19 13:01 51.999455 -13.360521 91 36795ft 521kts
02-Jun-19 13:02 51.998340 -13.125331 91 36795ft 522kts
02-Jun-19 13:03 51.997330 -12.889459 91 36794ft 523kts
02-Jun-19 13:04 51.995479 -12.653787 92 36792ft 523kts
02-Jun-19 13:05 51.992758 -12.418068 92 36791ft 523kts
02-Jun-19 13:06 51.989623 -12.181608 93 36790ft 523kts
02-Jun-19 13:07 51.986103 -11.946175 93 36790ft 523kts
02-Jun-19 13:08 51.982271 -11.710131 93 36789ft 523kts
02-Jun-19 13:09 51.978405 -11.473909 93 36789ft 523kts
02-Jun-19 13:10 51.974011 -11.238514 94 36789ft 523kts
02-Jun-19 13:11 51.968486 -11.002810 94 36788ft 523kts
02-Jun-19 13:12 51.962974 -10.766476 94 36788ft 524kts
02-Jun-19 13:13 51.957151 -10.531110 95 36788ft 523kts
02-Jun-19 13:14 51.950251 -10.295511 95 36788ft 522kts
02-Jun-19 13:15 51.942791 -10.059887 96 36787ft 522kts
02-Jun-19 13:16 51.935062 -9.825792 96 36787ft 522kts
02-Jun-19 13:17 51.927129 -9.590760 96 36787ft 522kts
02-Jun-19 13:18 51.919287 -9.355969 96 36785ft 522kts
02-Jun-19 13:19 51.910164 -9.120977 97 36784ft 522kts
02-Jun-19 13:20 51.900517 -8.886212 97 36787ft 523kts
02-Jun-19 13:21 51.891062 -8.651378 98 36815ft 523kts
02-Jun-19 13:22 51.880432 -8.416747 98 36817ft 522kts
02-Jun-19 13:23 51.869281 -8.182261 98 36815ft 522kts
02-Jun-19 13:24 51.858086 -7.947619 99 36811ft 522kts
02-Jun-19 13:25 51.846750 -7.714005 99 36810ft 522kts
02-Jun-19 13:26 51.834964 -7.479358 99 36805ft 521kts
02-Jun-19 13:27 51.822030 -7.246382 100 36801ft 520kts
02-Jun-19 13:28 51.808492 -7.013848 100 36795ft 520kts
02-Jun-19 13:29 51.794801 -6.781944 100 36789ft 518kts
02-Jun-19 13:30 51.781657 -6.549764 99 36789ft 518kts
02-Jun-19 13:31 51.774920 -6.390399 98 36792ft 518kts
02-Jun-19 13:38 51.695462 -4.707710 100 36879ft 511kts
02-Jun-19 13:39 51.683272 -4.480110 100 36876ft 509kts
02-Jun-19 13:40 51.670360 -4.253524 101 36876ft 507kts
02-Jun-19 13:41 51.656497 -4.028594 101 36881ft 506kts
02-Jun-19 13:42 51.642608 -3.803858 101 36885ft 505kts
02-Jun-19 13:43 51.628789 -3.578497 101 36894ft 505kts
02-Jun-19 13:44 51.614282 -3.353858 101 36899ft 504kts
02-Jun-19 13:45 51.599137 -3.129828 101 36900ft 503kts
02-Jun-19 13:46 51.583394 -2.907848 102 36900ft 502kts
02-Jun-19 13:47 51.567436 -2.685993 102 36896ft 501kts
02-Jun-19 13:48 51.551172 -2.463984 102 36890ft 500kts
02-Jun-19 13:50 51.534799 -2.241973 102 36882ft 499kts
02-Jun-19 13:51 51.518248 -2.020466 102 36886ft 499kts
02-Jun-19 13:52 51.500689 -1.800126 102 36889ft 498kts
02-Jun-19 13:53 51.482772 -1.580143 103 36892ft 497kts
02-Jun-19 13:54 51.464337 -1.360317 103 36885ft 497kts
02-Jun-19 13:55 51.445662 -1.142434 103 36882ft 497kts
02-Jun-19 13:56 51.426723 -0.927653 103 36882ft 497kts
02-Jun-19 13:57 51.407854 -0.715135 103 36902ft 498kts
02-Jun-19 13:58 51.389741 -0.517094 103 36904ft 498kts
02-Jun-19 13:59 51.371874 -0.325904 103 36902ft 497kts
02-Jun-19 14:00 51.351624 -0.113440 104 36900ft 497kts
02-Jun-19 14:01 51.330991 0.101738 104 36905ft 496kts
02-Jun-19 14:02 51.310178 0.317819 104 36901ft 492kts
02-Jun-19 14:03 51.288520 0.533628 105 36900ft 490kts
02-Jun-19 14:04 51.266530 0.748393 104 36901ft 490kts
02-Jun-19 14:05 51.251474 0.893474 105 36903ft 490kts
02-Jun-19 14:07 51.198180 1.390602 105 36924ft 488kts
02-Jun-19 14:08 51.174685 1.603228 105 36930ft 487kts
02-Jun-19 14:08 51.154908 1.780590 105 36931ft 487kts
02-Jun-19 14:10 51.128746 2.028993 101 36935ft 489kts
02-Jun-19 14:11 51.116561 2.245012 100 36935ft 489kts
02-Jun-19 14:11 51.107017 2.424382 100 36940ft 488kts
02-Jun-19 14:12 51.094846 2.637476 103 36934ft 485kts
02-Jun-19 14:14 51.056925 2.871900 111 36934ft 479kts
02-Jun-19 14:14 51.031216 3.007546 112 36932ft 478kts
02-Jun-19 14:15 50.994236 3.205452 111 36930ft 478kts
02-Jun-19 14:16 50.956562 3.407791 111 36929ft 478kts
02-Jun-19 14:17 50.918581 3.609638 111 36935ft 477kts
02-Jun-19 14:18 50.879879 3.810483 111 36943ft 477kts
02-Jun-19 14:19 50.843004 4.000427 111 36952ft 477kts
02-Jun-19 14:20 50.805308 4.190643 111 36948ft 476kts
02-Jun-19 14:21 50.765192 4.389670 111 36963ft 476kts
02-Jun-19 14:22 50.737730 4.526170 111 36964ft 476kts
02-Jun-19 14:27 50.526359 5.569173 111 36677ft 480kts
02-Jun-19 14:28 50.526359 5.569173 111 36677ft 480kts
02-Jun-19 14:30 50.410277 6.178581 110 31221ft 446kts
02-Jun-19 14:31 50.374764 6.362752 110 29405ft 432kts
02-Jun-19 14:32 50.375052 6.547776 74 27605ft 437kts
02-Jun-19 14:33 50.418636 6.723514 69 25812ft 428kts
02-Jun-19 14:34 50.447527 6.900079 85 24009ft 401kts
02-Jun-19 14:35 50.451197 6.952267 86 23446ft 380kts
02-Jun-19 14:41 50.142701 7.645792 145 11482ft 289kts
02-Jun-19 14:42 50.080928 7.722951 143 9692ft 278kts
02-Jun-19 14:43 50.024674 7.796924 136 8152ft 249kts
02-Jun-19 14:44 49.987271 7.880053 126 6802ft 227kts
02-Jun-19 14:45 49.952630 7.962434 127 5424ft 228kts
02-Jun-19 14:46 49.918957 8.042458 127 5033ft 211kts
02-Jun-19 14:47 49.917412 8.119958 54 4941ft 207kts
02-Jun-19 14:48 49.946726 8.191768 72 4828ft 201kts
02-Jun-19 14:49 49.965491 8.272171 74 3768ft 191kts
02-Jun-19 14:50 49.982819 8.346848 73 2849ft 184kts
02-Jun-19 14:51 50.000250 8.420685 71 1888ft 171kts
02-Jun-19 14:52 50.016316 8.486716 71 1073ft 167kts
02-Jun-19 14:53 50.030861 8.547776 71 382ft 94kts
02-Jun-19 14:54 50.036010 8.560705 43 382ft 17kts
02-Jun-19 14:55 50.037607 8.566047 52 382ft 17kts
02-Jun-19 14:56 50.040679 8.567320 10 382ft 0kts
02-Jun-19 14:57 50.043320 8.571378 69 382ft 27kts
02-Jun-19 14:58 50.045045 8.578477 69 382ft 12kts
02-Jun-19 14:59 50.047320 8.579480 14 382ft 8kts
02-Jun-19 15:00 50.048870 8.584404 69 382ft 17kts
02-Jun-19 15:01 50.050306 8.590233 73 382ft 0kts
02-Jun-19 15:02 50.051706 8.591730 339 382ft 0kts
02-Jun-19 15:03 50.051706 8.591730 339 382ft 0kts
02-Jun-19 15:04 50.051706 8.591730 339 382ft 0kts
02-Jun-19 15:05 50.051706 8.591730 339 382ft 0kts
02-Jun-19 15:06 50.051707 8.591730 339 382ft 0kts
02-Jun-19 15:07 50.051707 8.591729 339 382ft 0kts
02-Jun-19 15:08 50.051707 8.591729 339 382ft 0kts

Navigation Log

Ident Type
Flight plan parsing failed, navigation log unavailable